PWSweather.com
Personal Weather Stations
Station Observations
IROGLAN40
AalgaardNO 4330

AalgaardNO 4330

Lat: 58.773, Lon: 5.846

Elevation: 326

Station Type: Davis Vanatge Pro2

www.mavahome.com

High Low Average
Temperature 40.4°F4.7°C 30.8°F-0.7°C 35.5°F1.9°C
Dew Point 31.4°F-0.3°C 19.7°F-6.8°C 25.5°F-3.6°C
Winds 5.8 mph 9.3 kmh Calm Calm 2.0 mph SE3.2 kmh SE
Wind Gusts 11.5 mph18.5 kmh -- 3.0 mph4.8 kmh
Humidity 91% 56% 67%
Pressure 29.93 in1013.5 mb 29.73 in1006.8 mb -
Precipitation 0.00 in0.0 mm - -
Hour Temp Dew Point Humidity Winds Wind Gusts Pressure Precip Precip Rate Daily Precip Total
12:00 AM 33.6°F0.9°C 31.3°F-0.4°C 91% Calm Calm -- 29.73 in1006.8 mb - 0.00 in0.0 mm 0.00 in0.0 mm
12:10 AM 33.7°F0.9°C 31.4°F-0.3°C 91% Calm Calm -- 29.73 in1006.8 mb - 0.00 in0.0 mm 0.00 in0.0 mm
12:20 AM 33.7°F0.9°C 31.1°F-0.5°C 90% Calm Calm -- 29.74 in1007.1 mb - 0.00 in0.0 mm 0.00 in0.0 mm
12:30 AM 33.8°F1.0°C 30.9°F-0.6°C 89% Calm Calm -- 29.74 in1007.1 mb - 0.00 in0.0 mm 0.00 in0.0 mm
12:40 AM 33.9°F1.1°C 30.7°F-0.7°C 88% Calm Calm -- 29.74 in1007.1 mb - 0.00 in0.0 mm 0.00 in0.0 mm
12:50 AM 33.9°F1.1°C 30.2°F-1.0°C 86% Calm Calm -- 29.74 in1007.1 mb - 0.00 in0.0 mm 0.00 in0.0 mm
01:00 AM 33.8°F1.0°C 29.8°F-1.2°C 85% Calm Calm -- 29.75 in1007.5 mb - 0.00 in0.0 mm 0.00 in0.0 mm
01:10 AM 33.8°F1.0°C 29.5°F-1.4°C 84% Calm Calm -- 29.75 in1007.5 mb - 0.00 in0.0 mm 0.00 in0.0 mm
01:20 AM 33.7°F0.9°C 29.1°F-1.6°C 83% Calm Calm -- 29.75 in1007.5 mb - 0.00 in0.0 mm 0.00 in0.0 mm
01:30 AM 33.6°F0.9°C 28.7°F-1.8°C 82% Calm Calm -- 29.75 in1007.5 mb - 0.00 in0.0 mm 0.00 in0.0 mm
01:40 AM 33.4°F0.8°C 28.5°F-1.9°C 82% Calm Calm -- 29.75 in1007.5 mb - 0.00 in0.0 mm 0.00 in0.0 mm
01:50 AM 33.2°F0.7°C 28.3°F-2.1°C 82% Calm Calm -- 29.76 in1007.8 mb - 0.00 in0.0 mm 0.00 in0.0 mm
02:00 AM 33.2°F0.7°C 28.0°F-2.2°C 81% Calm Calm -- 29.76 in1007.8 mb - 0.00 in0.0 mm 0.00 in0.0 mm
02:10 AM 33.2°F0.7°C 27.7°F-2.4°C 80% Calm Calm -- 29.76 in1007.8 mb - 0.00 in0.0 mm 0.00 in0.0 mm
02:20 AM 32.9°F0.5°C 27.4°F-2.6°C 80% Calm Calm -- 29.77 in1008.1 mb - 0.00 in0.0 mm 0.00 in0.0 mm
02:30 AM 32.8°F0.4°C 27.3°F-2.6°C 80% Calm Calm -- 29.77 in1008.1 mb - 0.00 in0.0 mm 0.00 in0.0 mm
02:40 AM 32.7°F0.4°C 27.2°F-2.7°C 80% Calm Calm -- 29.77 in1008.1 mb - 0.00 in0.0 mm 0.00 in0.0 mm
02:50 AM 32.7°F0.4°C 27.2°F-2.7°C 80% Calm Calm -- 29.77 in1008.1 mb - 0.00 in0.0 mm 0.00 in0.0 mm
03:00 AM 32.7°F0.4°C 27.2°F-2.7°C 80% Calm Calm -- 29.77 in1008.1 mb - 0.00 in0.0 mm 0.00 in0.0 mm
03:10 AM 32.6°F0.3°C 27.1°F-2.7°C 80% Calm Calm -- 29.77 in1008.1 mb - 0.00 in0.0 mm 0.00 in0.0 mm
03:20 AM 32.8°F0.4°C 27.3°F-2.6°C 80% Calm Calm -- 29.77 in1008.1 mb - 0.00 in0.0 mm 0.00 in0.0 mm
03:30 AM 32.9°F0.5°C 27.1°F-2.7°C 79% Calm Calm -- 29.77 in1008.1 mb - 0.00 in0.0 mm 0.00 in0.0 mm
03:40 AM 33.1°F0.6°C 27.3°F-2.6°C 79% Calm Calm -- 29.78 in1008.5 mb - 0.00 in0.0 mm 0.00 in0.0 mm
03:50 AM 33.2°F0.7°C 27.1°F-2.7°C 78% Calm Calm -- 29.78 in1008.5 mb - 0.00 in0.0 mm 0.00 in0.0 mm
04:00 AM 33.1°F0.6°C 27.0°F-2.8°C 78% Calm Calm -- 29.78 in1008.5 mb - 0.00 in0.0 mm 0.00 in0.0 mm
04:10 AM 33.2°F0.7°C 26.8°F-2.9°C 77% Calm Calm -- 29.78 in1008.5 mb - 0.00 in0.0 mm 0.00 in0.0 mm
04:20 AM 33.6°F0.9°C 26.5°F-3.1°C 75% Calm Calm -- 29.78 in1008.5 mb - 0.00 in0.0 mm 0.00 in0.0 mm
04:30 AM 33.5°F0.8°C 26.4°F-3.1°C 75% Calm Calm -- 29.79 in1008.8 mb - 0.00 in0.0 mm 0.00 in0.0 mm
04:40 AM 33.4°F0.8°C 26.6°F-3.0°C 76% Calm Calm -- 29.79 in1008.8 mb - 0.00 in0.0 mm 0.00 in0.0 mm
04:50 AM 33.3°F0.7°C 26.5°F-3.1°C 76% Calm Calm -- 29.80 in1009.1 mb - 0.00 in0.0 mm 0.00 in0.0 mm
05:00 AM 33.3°F0.7°C 26.8°F-2.9°C 77% Calm Calm -- 29.80 in1009.1 mb - 0.00 in0.0 mm 0.00 in0.0 mm
05:10 AM 33.3°F0.7°C 26.9°F-2.8°C 77% Calm Calm -- 29.80 in1009.1 mb - 0.00 in0.0 mm 0.00 in0.0 mm
05:20 AM 33.4°F0.8°C 26.6°F-3.0°C 76% Calm Calm -- 29.80 in1009.1 mb - 0.00 in0.0 mm 0.00 in0.0 mm
05:30 AM 33.4°F0.8°C 26.6°F-3.0°C 76% Calm Calm -- 29.80 in1009.1 mb - 0.00 in0.0 mm 0.00 in0.0 mm
05:40 AM 33.7°F0.9°C 26.6°F-3.0°C 75% Calm Calm -- 29.80 in1009.1 mb - 0.00 in0.0 mm 0.00 in0.0 mm
05:50 AM 33.9°F1.1°C 26.5°F-3.1°C 74% Calm Calm -- 29.80 in1009.1 mb - 0.00 in0.0 mm 0.00 in0.0 mm
06:00 AM 34.0°F1.1°C 26.3°F-3.2°C 73% Calm Calm -- 29.80 in1009.1 mb - 0.00 in0.0 mm 0.00 in0.0 mm
06:10 AM 34.0°F1.1°C 26.3°F-3.2°C 73% Calm Calm -- 29.81 in1009.5 mb - 0.00 in0.0 mm 0.00 in0.0 mm
06:20 AM 34.0°F1.1°C 26.3°F-3.2°C 73% Calm Calm -- 29.81 in1009.5 mb - 0.00 in0.0 mm 0.00 in0.0 mm
06:30 AM 33.9°F1.1°C 26.2°F-3.2°C 73% Calm Calm -- 29.82 in1009.8 mb - 0.00 in0.0 mm 0.00 in0.0 mm
06:40 AM 33.8°F1.0°C 26.1°F-3.3°C 73% Calm Calm -- 29.82 in1009.8 mb - 0.00 in0.0 mm 0.00 in0.0 mm
06:50 AM 33.7°F0.9°C 26.3°F-3.2°C 74% Calm Calm -- 29.82 in1009.8 mb - 0.00 in0.0 mm 0.00 in0.0 mm
07:00 AM 33.5°F0.8°C 26.1°F-3.3°C 74% Calm Calm -- 29.82 in1009.8 mb - 0.00 in0.0 mm 0.00 in0.0 mm
07:10 AM 33.7°F0.9°C 26.0°F-3.3°C 73% Calm Calm 6.9 mph11.1 kmh 29.82 in1009.8 mb - 0.00 in0.0 mm 0.00 in0.0 mm
07:20 AM 35.2°F1.8°C 26.0°F-3.3°C 69% 2.3 mph SW3.7 kmh SW 3.5 mph5.6 kmh 29.82 in1009.8 mb - 0.00 in0.0 mm 0.00 in0.0 mm
07:30 AM 35.2°F1.8°C 26.0°F-3.3°C 69% 1.2 mph SW1.9 kmh SW 3.5 mph5.6 kmh 29.82 in1009.8 mb - 0.00 in0.0 mm 0.00 in0.0 mm
07:40 AM 35.1°F1.7°C 26.0°F-3.3°C 69% Calm Calm -- 29.83 in1010.2 mb - 0.00 in0.0 mm 0.00 in0.0 mm
07:50 AM 35.3°F1.8°C 25.8°F-3.4°C 68% Calm Calm 1.2 mph1.9 kmh 29.83 in1010.2 mb - 0.00 in0.0 mm 0.00 in0.0 mm
08:00 AM 35.5°F1.9°C 26.0°F-3.3°C 68% 2.3 mph E3.7 kmh E 5.8 mph9.3 kmh 29.84 in1010.5 mb - 0.00 in0.0 mm 0.00 in0.0 mm
08:10 AM 35.7°F2.1°C 25.8°F-3.4°C 67% 1.2 mph SE1.9 kmh SE 5.8 mph9.3 kmh 29.84 in1010.5 mb - 0.00 in0.0 mm 0.00 in0.0 mm
08:20 AM 35.9°F2.2°C 26.0°F-3.3°C 67% 1.2 mph SE1.9 kmh SE 5.8 mph9.3 kmh 29.84 in1010.5 mb - 0.00 in0.0 mm 0.00 in0.0 mm
08:30 AM 36.1°F2.3°C 25.9°F-3.4°C 66% 1.2 mph SE1.9 kmh SE 3.5 mph5.6 kmh 29.84 in1010.5 mb - 0.00 in0.0 mm 0.00 in0.0 mm
08:40 AM 36.3°F2.4°C 26.0°F-3.3°C 66% 1.2 mph E1.9 kmh E 3.5 mph5.6 kmh 29.85 in1010.8 mb - 0.00 in0.0 mm 0.00 in0.0 mm
08:50 AM 36.2°F2.3°C 25.9°F-3.4°C 66% 1.2 mph SSW1.9 kmh SSW 3.5 mph5.6 kmh 29.85 in1010.8 mb - 0.00 in0.0 mm 0.00 in0.0 mm
09:00 AM 36.4°F2.4°C 26.1°F-3.3°C 66% 2.3 mph E3.7 kmh E 6.9 mph11.1 kmh 29.85 in1010.8 mb - 0.00 in0.0 mm 0.00 in0.0 mm
09:10 AM 36.6°F2.6°C 25.9°F-3.4°C 65% 1.2 mph ESE1.9 kmh ESE 3.5 mph5.6 kmh 29.85 in1010.8 mb - 0.00 in0.0 mm 0.00 in0.0 mm
09:20 AM 36.7°F2.6°C 26.0°F-3.3°C 65% 2.3 mph ESE3.7 kmh ESE 3.5 mph5.6 kmh 29.86 in1011.2 mb - 0.00 in0.0 mm 0.00 in0.0 mm
09:30 AM 36.8°F2.7°C 26.1°F-3.3°C 65% 1.2 mph S1.9 kmh S 2.3 mph3.7 kmh 29.86 in1011.2 mb - 0.00 in0.0 mm 0.00 in0.0 mm
09:40 AM 37.1°F2.8°C 26.0°F-3.3°C 64% 2.3 mph SE3.7 kmh SE 3.5 mph5.6 kmh 29.86 in1011.2 mb - 0.00 in0.0 mm 0.00 in0.0 mm
09:50 AM 37.3°F2.9°C 25.8°F-3.4°C 63% 2.3 mph SE3.7 kmh SE 5.8 mph9.3 kmh 29.86 in1011.2 mb - 0.00 in0.0 mm 0.00 in0.0 mm
10:00 AM 37.5°F3.1°C 26.0°F-3.3°C 63% 2.3 mph S3.7 kmh S 3.5 mph5.6 kmh 29.86 in1011.2 mb - 0.00 in0.0 mm 0.00 in0.0 mm
10:10 AM 37.9°F3.3°C 26.4°F-3.1°C 63% 1.2 mph SSE1.9 kmh SSE 2.3 mph3.7 kmh 29.87 in1011.5 mb - 0.00 in0.0 mm 0.00 in0.0 mm
10:20 AM 38.0°F3.3°C 26.1°F-3.3°C 62% 2.3 mph SE3.7 kmh SE 4.6 mph7.4 kmh 29.87 in1011.5 mb - 0.00 in0.0 mm 0.00 in0.0 mm
10:30 AM 38.1°F3.4°C 25.8°F-3.4°C 61% 3.5 mph W5.6 kmh W 4.6 mph7.4 kmh 29.88 in1011.9 mb - 0.00 in0.0 mm 0.00 in0.0 mm
10:40 AM 38.3°F3.5°C 26.0°F-3.3°C 61% 2.3 mph SE3.7 kmh SE 5.8 mph9.3 kmh 29.88 in1011.9 mb - 0.00 in0.0 mm 0.00 in0.0 mm
10:50 AM 38.4°F3.6°C 25.7°F-3.5°C 60% 4.6 mph S7.4 kmh S 9.2 mph14.8 kmh 29.88 in1011.9 mb - 0.00 in0.0 mm 0.00 in0.0 mm
11:00 AM 38.5°F3.6°C 25.8°F-3.4°C 60% 4.6 mph WSW7.4 kmh WSW 8.1 mph13.0 kmh 29.88 in1011.9 mb - 0.00 in0.0 mm 0.00 in0.0 mm
11:10 AM 38.4°F3.6°C 25.7°F-3.5°C 60% 4.6 mph W7.4 kmh W 8.1 mph13.0 kmh 29.88 in1011.9 mb - 0.00 in0.0 mm 0.00 in0.0 mm
11:20 AM 38.4°F3.6°C 25.7°F-3.5°C 60% 3.5 mph WSW5.6 kmh WSW 8.1 mph13.0 kmh 29.88 in1011.9 mb - 0.00 in0.0 mm 0.00 in0.0 mm
11:30 AM 38.3°F3.5°C 26.0°F-3.3°C 61% 3.5 mph W5.6 kmh W 8.1 mph13.0 kmh 29.88 in1011.9 mb - 0.00 in0.0 mm 0.00 in0.0 mm
11:40 AM 38.3°F3.5°C 25.6°F-3.6°C 60% 5.8 mph SW9.3 kmh SW 8.1 mph13.0 kmh 29.89 in1012.2 mb - 0.00 in0.0 mm 0.00 in0.0 mm
11:50 AM 38.4°F3.6°C 26.1°F-3.3°C 61% 4.6 mph W7.4 kmh W 11.5 mph18.5 kmh 29.89 in1012.2 mb - 0.00 in0.0 mm 0.00 in0.0 mm
12:00 PM 38.4°F3.6°C 26.1°F-3.3°C 61% 3.5 mph WSW5.6 kmh WSW 8.1 mph13.0 kmh 29.89 in1012.2 mb - 0.00 in0.0 mm 0.00 in0.0 mm
12:10 PM 38.5°F3.6°C 25.8°F-3.4°C 60% 3.5 mph SE5.6 kmh SE 5.8 mph9.3 kmh 29.89 in1012.2 mb - 0.00 in0.0 mm 0.00 in0.0 mm
12:20 PM 38.6°F3.7°C 25.9°F-3.4°C 60% 4.6 mph WSW7.4 kmh WSW 9.2 mph14.8 kmh 29.89 in1012.2 mb - 0.00 in0.0 mm 0.00 in0.0 mm
12:30 PM 38.7°F3.7°C 26.0°F-3.3°C 60% 5.8 mph W9.3 kmh W 8.1 mph13.0 kmh 29.89 in1012.2 mb - 0.00 in0.0 mm 0.00 in0.0 mm
12:40 PM 38.7°F3.7°C 26.0°F-3.3°C 60% 4.6 mph WSW7.4 kmh WSW 6.9 mph11.1 kmh 29.89 in1012.2 mb - 0.00 in0.0 mm 0.00 in0.0 mm
12:50 PM 38.8°F3.8°C 26.1°F-3.3°C 60% 3.5 mph S5.6 kmh S 5.8 mph9.3 kmh 29.89 in1012.2 mb - 0.00 in0.0 mm 0.00 in0.0 mm
01:00 PM 38.9°F3.8°C 26.6°F-3.0°C 61% 3.5 mph ENE5.6 kmh ENE 9.2 mph14.8 kmh 29.89 in1012.2 mb - 0.00 in0.0 mm 0.00 in0.0 mm
01:10 PM 39.1°F3.9°C 26.4°F-3.1°C 60% 4.6 mph SE7.4 kmh SE 9.2 mph14.8 kmh 29.89 in1012.2 mb - 0.00 in0.0 mm 0.00 in0.0 mm
01:20 PM 39.3°F4.1°C 26.2°F-3.2°C 59% 3.5 mph SE5.6 kmh SE 9.2 mph14.8 kmh 29.90 in1012.5 mb - 0.00 in0.0 mm 0.00 in0.0 mm
01:30 PM 39.6°F4.2°C 26.0°F-3.3°C 58% 4.6 mph SW7.4 kmh SW 6.9 mph11.1 kmh 29.91 in1012.9 mb - 0.00 in0.0 mm 0.00 in0.0 mm
01:40 PM 40.2°F4.6°C 26.2°F-3.2°C 57% 3.5 mph S5.6 kmh S 4.6 mph7.4 kmh 29.91 in1012.9 mb - 0.00 in0.0 mm 0.00 in0.0 mm
01:50 PM 40.4°F4.7°C 26.4°F-3.1°C 57% 3.5 mph ESE5.6 kmh ESE 8.1 mph13.0 kmh 29.91 in1012.9 mb - 0.00 in0.0 mm 0.00 in0.0 mm
02:00 PM 40.2°F4.6°C 25.8°F-3.4°C 56% 4.6 mph S7.4 kmh S 5.8 mph9.3 kmh 29.91 in1012.9 mb - 0.00 in0.0 mm 0.00 in0.0 mm
02:10 PM 40.1°F4.5°C 25.6°F-3.6°C 56% 2.3 mph SW3.7 kmh SW 4.6 mph7.4 kmh 29.91 in1012.9 mb - 0.00 in0.0 mm 0.00 in0.0 mm
02:20 PM 39.5°F4.2°C 25.5°F-3.6°C 57% 3.5 mph SW5.6 kmh SW 4.6 mph7.4 kmh 29.90 in1012.5 mb - 0.00 in0.0 mm 0.00 in0.0 mm
02:30 PM 40.0°F4.4°C 26.0°F-3.3°C 57% 3.5 mph NE5.6 kmh NE 5.8 mph9.3 kmh 29.90 in1012.5 mb - 0.00 in0.0 mm 0.00 in0.0 mm
02:40 PM 39.8°F4.3°C 25.4°F-3.7°C 56% 3.5 mph E5.6 kmh E 6.9 mph11.1 kmh 29.90 in1012.5 mb - 0.00 in0.0 mm 0.00 in0.0 mm
02:50 PM 39.6°F4.2°C 26.0°F-3.3°C 58% 1.2 mph WNW1.9 kmh WNW 3.5 mph5.6 kmh 29.90 in1012.5 mb - 0.00 in0.0 mm 0.00 in0.0 mm
03:00 PM 39.7°F4.3°C 25.7°F-3.5°C 57% 2.3 mph SE3.7 kmh SE 2.3 mph3.7 kmh 29.90 in1012.5 mb - 0.00 in0.0 mm 0.00 in0.0 mm
03:10 PM 39.4°F4.1°C 25.4°F-3.7°C 57% 2.3 mph S3.7 kmh S 3.5 mph5.6 kmh 29.90 in1012.5 mb - 0.00 in0.0 mm 0.00 in0.0 mm
03:20 PM 39.0°F3.9°C 25.0°F-3.9°C 57% 4.6 mph SE7.4 kmh SE 10.4 mph16.7 kmh 29.90 in1012.5 mb - 0.00 in0.0 mm 0.00 in0.0 mm
03:30 PM 38.7°F3.7°C 24.8°F-4.0°C 57% 4.6 mph N7.4 kmh N 8.1 mph13.0 kmh 29.89 in1012.2 mb - 0.00 in0.0 mm 0.00 in0.0 mm
03:40 PM 38.6°F3.7°C 24.7°F-4.1°C 57% 5.8 mph WSW9.3 kmh WSW 10.4 mph16.7 kmh 29.89 in1012.2 mb - 0.00 in0.0 mm 0.00 in0.0 mm
03:50 PM 38.8°F3.8°C 25.3°F-3.7°C 58% 3.5 mph NNW5.6 kmh NNW 6.9 mph11.1 kmh 29.89 in1012.2 mb - 0.00 in0.0 mm 0.00 in0.0 mm
04:00 PM 39.4°F4.1°C 25.4°F-3.7°C 57% 2.3 mph S3.7 kmh S 5.8 mph9.3 kmh 29.88 in1011.9 mb - 0.00 in0.0 mm 0.00 in0.0 mm
04:10 PM 39.4°F4.1°C 25.0°F-3.9°C 56% 4.6 mph SW7.4 kmh SW 10.4 mph16.7 kmh 29.88 in1011.9 mb - 0.00 in0.0 mm 0.00 in0.0 mm
04:20 PM 39.1°F3.9°C 24.7°F-4.1°C 56% 3.5 mph S5.6 kmh S 8.1 mph13.0 kmh 29.88 in1011.9 mb - 0.00 in0.0 mm 0.00 in0.0 mm
04:30 PM 38.9°F3.8°C 25.0°F-3.9°C 57% 2.3 mph S3.7 kmh S 3.5 mph5.6 kmh 29.88 in1011.9 mb - 0.00 in0.0 mm 0.00 in0.0 mm
04:40 PM 38.7°F3.7°C 25.2°F-3.8°C 58% 1.2 mph SE1.9 kmh SE 3.5 mph5.6 kmh 29.89 in1012.2 mb - 0.00 in0.0 mm 0.00 in0.0 mm
04:50 PM 38.7°F3.7°C 25.2°F-3.8°C 58% 4.6 mph WSW7.4 kmh WSW 9.2 mph14.8 kmh 29.89 in1012.2 mb - 0.00 in0.0 mm 0.00 in0.0 mm
05:00 PM 38.5°F3.6°C 24.6°F-4.1°C 57% 4.6 mph W7.4 kmh W 8.1 mph13.0 kmh 29.89 in1012.2 mb - 0.00 in0.0 mm 0.00 in0.0 mm
05:10 PM 38.3°F3.5°C 24.4°F-4.2°C 57% 3.5 mph NW5.6 kmh NW 8.1 mph13.0 kmh 29.89 in1012.2 mb - 0.00 in0.0 mm 0.00 in0.0 mm
05:20 PM 38.1°F3.4°C 24.2°F-4.3°C 57% 2.3 mph SSE3.7 kmh SSE 8.1 mph13.0 kmh 29.89 in1012.2 mb - 0.00 in0.0 mm 0.00 in0.0 mm
05:30 PM 37.9°F3.3°C 24.4°F-4.2°C 58% 2.3 mph WSW3.7 kmh WSW 5.8 mph9.3 kmh 29.88 in1011.9 mb - 0.00 in0.0 mm 0.00 in0.0 mm
05:40 PM 37.7°F3.2°C 24.2°F-4.3°C 58% 3.5 mph WSW5.6 kmh WSW 6.9 mph11.1 kmh 29.89 in1012.2 mb - 0.00 in0.0 mm 0.00 in0.0 mm
05:50 PM 37.5°F3.1°C 24.0°F-4.4°C 58% Calm Calm 1.2 mph1.9 kmh 29.89 in1012.2 mb - 0.00 in0.0 mm 0.00 in0.0 mm
06:00 PM 37.1°F2.8°C 24.1°F-4.4°C 59% 1.2 mph SW1.9 kmh SW 2.3 mph3.7 kmh 29.89 in1012.2 mb - 0.00 in0.0 mm 0.00 in0.0 mm
06:10 PM 36.8°F2.7°C 23.4°F-4.8°C 58% 1.2 mph SW1.9 kmh SW 3.5 mph5.6 kmh 29.89 in1012.2 mb - 0.00 in0.0 mm 0.00 in0.0 mm
06:20 PM 36.5°F2.5°C 23.1°F-4.9°C 58% 2.3 mph WSW3.7 kmh WSW 4.6 mph7.4 kmh 29.90 in1012.5 mb - 0.00 in0.0 mm 0.00 in0.0 mm
06:30 PM 36.3°F2.4°C 22.9°F-5.1°C 58% 1.2 mph SSW1.9 kmh SSW 4.6 mph7.4 kmh 29.90 in1012.5 mb - 0.00 in0.0 mm 0.00 in0.0 mm
06:40 PM 36.0°F2.2°C 23.0°F-5.0°C 59% Calm Calm 1.2 mph1.9 kmh 29.91 in1012.9 mb - 0.00 in0.0 mm 0.00 in0.0 mm
06:50 PM 35.7°F2.1°C 22.8°F-5.1°C 59% 1.2 mph SE1.9 kmh SE 2.3 mph3.7 kmh 29.91 in1012.9 mb - 0.00 in0.0 mm 0.00 in0.0 mm
07:00 PM 35.5°F1.9°C 22.6°F-5.2°C 59% Calm Calm 1.2 mph1.9 kmh 29.91 in1012.9 mb - 0.00 in0.0 mm 0.00 in0.0 mm
07:10 PM 35.0°F1.7°C 22.5°F-5.3°C 60% Calm Calm 1.2 mph1.9 kmh 29.91 in1012.9 mb - 0.00 in0.0 mm 0.00 in0.0 mm
07:20 PM 34.4°F1.3°C 23.1°F-4.9°C 63% Calm Calm 1.2 mph1.9 kmh 29.91 in1012.9 mb - 0.00 in0.0 mm 0.00 in0.0 mm
07:30 PM 33.9°F1.1°C 22.6°F-5.2°C 63% Calm Calm 1.2 mph1.9 kmh 29.92 in1013.2 mb - 0.00 in0.0 mm 0.00 in0.0 mm
07:40 PM 33.6°F0.9°C 22.4°F-5.3°C 63% Calm Calm 2.3 mph3.7 kmh 29.92 in1013.2 mb - 0.00 in0.0 mm 0.00 in0.0 mm
07:50 PM 33.6°F0.9°C 22.7°F-5.2°C 64% Calm Calm 1.2 mph1.9 kmh 29.92 in1013.2 mb - 0.00 in0.0 mm 0.00 in0.0 mm
08:00 PM 33.2°F0.7°C 23.1°F-4.9°C 66% Calm Calm 1.2 mph1.9 kmh 29.92 in1013.2 mb - 0.00 in0.0 mm 0.00 in0.0 mm
08:10 PM 32.6°F0.3°C 23.9°F-4.5°C 70% Calm Calm 1.2 mph1.9 kmh 29.93 in1013.5 mb - 0.00 in0.0 mm 0.00 in0.0 mm
08:20 PM 32.4°F0.2°C 24.0°F-4.4°C 71% Calm Calm 1.2 mph1.9 kmh 29.93 in1013.5 mb - 0.00 in0.0 mm 0.00 in0.0 mm
08:30 PM 32.1°F0.1°C 24.4°F-4.2°C 73% 1.2 mph ESE1.9 kmh ESE 1.2 mph1.9 kmh 29.93 in1013.5 mb - 0.00 in0.0 mm 0.00 in0.0 mm
08:40 PM 32.0°F0.0°C 24.3°F-4.3°C 73% Calm Calm 1.2 mph1.9 kmh 29.93 in1013.5 mb - 0.00 in0.0 mm 0.00 in0.0 mm
08:50 PM 32.0°F0.0°C 24.7°F-4.1°C 74% Calm Calm 1.2 mph1.9 kmh 29.93 in1013.5 mb - 0.00 in0.0 mm 0.00 in0.0 mm
09:00 PM 32.3°F0.2°C 24.9°F-3.9°C 74% Calm Calm 3.5 mph5.6 kmh 29.92 in1013.2 mb - 0.00 in0.0 mm 0.00 in0.0 mm
09:10 PM 32.1°F0.1°C 24.7°F-4.1°C 74% Calm Calm -- 29.93 in1013.5 mb - 0.00 in0.0 mm 0.00 in0.0 mm
09:20 PM 31.7°F-0.2°C 24.7°F-4.1°C 75% Calm Calm 1.2 mph1.9 kmh 29.93 in1013.5 mb - 0.00 in0.0 mm 0.00 in0.0 mm
09:30 PM 31.8°F-0.1°C 24.1°F-4.4°C 73% Calm Calm -- 29.93 in1013.5 mb - 0.00 in0.0 mm 0.00 in0.0 mm
09:40 PM 31.7°F-0.2°C 23.7°F-4.6°C 72% Calm Calm -- 29.93 in1013.5 mb - 0.00 in0.0 mm 0.00 in0.0 mm
09:50 PM 30.8°F-0.7°C 23.5°F-4.7°C 74% Calm Calm -- 29.92 in1013.2 mb - 0.00 in0.0 mm 0.00 in0.0 mm
10:00 PM 31.0°F-0.6°C 23.4°F-4.8°C 73% 1.2 mph SSE1.9 kmh SSE 4.6 mph7.4 kmh 29.92 in1013.2 mb - 0.00 in0.0 mm 0.00 in0.0 mm
10:10 PM 32.0°F0.0°C 23.0°F-5.0°C 69% 1.2 mph SE1.9 kmh SE 2.3 mph3.7 kmh 29.92 in1013.2 mb - 0.00 in0.0 mm 0.00 in0.0 mm
10:20 PM 32.4°F0.2°C 22.7°F-5.2°C 67% Calm Calm 3.5 mph5.6 kmh 29.92 in1013.2 mb - 0.00 in0.0 mm 0.00 in0.0 mm
10:30 PM 32.7°F0.4°C 22.2°F-5.4°C 65% 1.2 mph S1.9 kmh S 3.5 mph5.6 kmh 29.91 in1012.9 mb - 0.00 in0.0 mm 0.00 in0.0 mm
10:40 PM 32.8°F0.4°C 21.6°F-5.8°C 63% 1.2 mph SSE1.9 kmh SSE 3.5 mph5.6 kmh 29.91 in1012.9 mb - 0.00 in0.0 mm 0.00 in0.0 mm
10:50 PM 32.9°F0.5°C 21.3°F-5.9°C 62% 2.3 mph ESE3.7 kmh ESE 4.6 mph7.4 kmh 29.92 in1013.2 mb - 0.00 in0.0 mm 0.00 in0.0 mm
11:00 PM 33.3°F0.7°C 20.1°F-6.6°C 58% 3.5 mph S5.6 kmh S 5.8 mph9.3 kmh 29.91 in1012.9 mb - 0.00 in0.0 mm 0.00 in0.0 mm
11:10 PM 33.4°F0.8°C 20.2°F-6.6°C 58% 3.5 mph NW5.6 kmh NW 5.8 mph9.3 kmh 29.91 in1012.9 mb - 0.00 in0.0 mm 0.00 in0.0 mm
11:20 PM 33.2°F0.7°C 20.0°F-6.7°C 58% 1.2 mph E1.9 kmh E 3.5 mph5.6 kmh 29.92 in1013.2 mb - 0.00 in0.0 mm 0.00 in0.0 mm
11:30 PM 33.0°F0.6°C 19.8°F-6.8°C 58% Calm Calm 2.3 mph3.7 kmh 29.92 in1013.2 mb - 0.00 in0.0 mm 0.00 in0.0 mm
11:40 PM 32.6°F0.3°C 19.8°F-6.8°C 59% Calm Calm 2.3 mph3.7 kmh 29.92 in1013.2 mb - 0.00 in0.0 mm 0.00 in0.0 mm
11:50 PM 32.0°F0.0°C 19.7°F-6.8°C 60% 1.2 mph SE1.9 kmh SE 3.5 mph5.6 kmh 29.92 in1013.2 mb - 0.00 in0.0 mm 0.00 in0.0 mm